• Join FlightAware (Why Join?)
  • Login
  • US Flag 
Rudolph Flight #1: Scheduled 
07:56PM EST


 

Airport Tracker/Info


-or-


 

Live Flight TrackerFlight Track Log ✈ PDT4155 ✈ 04-Oct-2013 ✈ KBGM - KPHL

Flight Track Log - Related Links

Times and Time Zones

All times are in EDT time to prevent confusion due to time zone crossing. See the PDT4155 flight status page for this flight to view local times or setup timezone preferences in your user account.

Time Position Orientation Groundspeed Altitude Reporting Facility
EDT Latitude Longitude Course Direction KTS MPH feet Rate Location/Type
07:11AM 41.7454 -75.8288 161° South  Level Estimated
07:12AM 41.6873 -75.8111 167° South  Level FlightAware Approximate
07:13AM 41.6295 -75.7924 162° South  Level Estimated
07:14AM 41.5720 -75.7716 165° South  Level FlightAware Approximate
07:15AM 41.5145 -75.7508 165° South  Level FlightAware Approximate
07:16AM 41.4570 -75.7301 165° South  Level FlightAware Approximate
07:17AM 41.3995 -75.7094 165° South  Level FlightAware Approximate
07:18AM 41.3415 -75.6912 159° South  Level Estimated
07:19AM 41.2836 -75.6730 163° South  Level Estimated
07:20AM 41.2265 -75.6504 163° South  Level FlightAware Approximate
07:21AM 41.1694 -75.6278 163° South  Level FlightAware Approximate
07:22AM 41.1123 -75.6052 163° South  Level FlightAware Approximate
07:23AM 41.0542 -75.5879 190° South  Level Estimated
07:24AM 40.9951 -75.5784 173° South  Level FlightAware Approximate
07:25AM 40.9360 -75.5690 173° South  Level FlightAware Approximate
07:26AM 40.8769 -75.5596 173° South  Level FlightAware Approximate
07:27AM 40.8190 -75.5410 187° South  Level Estimated
07:27AM 40.8000 -75.4833 143° Southeast 244 281 8,100  Level Philadelphia TRACON
07:28AM 40.7612 -75.5224 190° South  Level Estimated
07:28AM 40.7333 -75.4500 159° South 249 287 7,400  Level Philadelphia TRACON
07:29AM 40.7016 -75.5256 182° South  Level FlightAware Approximate
07:29AM 40.6667 -75.4667 191° South 257 296 6,400  Level Philadelphia TRACON
07:30AM 40.6422 -75.5288 182° South  Level FlightAware Approximate
07:30AM 40.5833 -75.4833 189° South 255 293 5,200  Level Philadelphia TRACON
07:31AM 40.5849 -75.5072 180° South  Level Estimated
07:31AM 40.5333 -75.4833 180° South 250 288 5,100  Level Philadelphia TRACON
07:32AM 40.5199 -75.4827 143° Southeast  Level Estimated
07:32AM 40.4500 -75.4833 180° South 237 273 5,100  Level Philadelphia TRACON
07:33AM 40.4000 -75.4667 166° South 232 267 5,100  Level Philadelphia TRACON
07:34AM 40.3333 -75.4667 180° South 233 268 5,100  Level Philadelphia TRACON
07:35AM 40.2667 -75.4333 159° South 232 267 5,100 -420 Level Philadelphia TRACON
07:36AM 40.2000 -75.4000 159° South 243 280 4,300 -900 Descending Philadelphia TRACON
07:37AM 40.1333 -75.3500 150° Southeast 253 291 3,200 -600 Descending Philadelphia TRACON
07:38AM 40.0667 -75.3333 169° South 227 261 3,100 -420 Descending Philadelphia TRACON
07:39AM 40.0000 -75.3000 159° South 215 247 2,400 -780 Descending Philadelphia TRACON
07:41AM 39.9500 -75.2667 153° Southeast 168 193 1,400 -900 Descending Philadelphia TRACON
07:41AM 39.9167 -75.2500 159° South 134 154 700 -720 Descending Philadelphia TRACON
07:42AM 39.9000 -75.2333 143° Southeast 99 114 200 -600 Descending Philadelphia TRACON